sensor_id;sensor_type;location;lat;lon;timestamp;pressure;altitude;pressure_sealevel;temperature;humidity
57791;BME280;43621;51.798;21.588;2023-11-21T00:02:24;99169.48;;;1.44;75.91
57791;BME280;43621;51.798;21.588;2023-11-21T00:06:25;99169.41;;;1.47;76.15
57791;BME280;43621;51.798;21.588;2023-11-21T00:10:25;99175.48;;;1.57;76.02
57791;BME280;43621;51.798;21.588;2023-11-21T00:14:27;99188.61;;;1.69;75.94
57791;BME280;43621;51.798;21.588;2023-11-21T00:18:28;99195.80;;;1.75;75.64
57791;BME280;43621;51.798;21.588;2023-11-21T00:22:29;99201.59;;;1.63;75.13
57791;BME280;43621;51.798;21.588;2023-11-21T00:26:30;99206.27;;;1.44;75.36
57791;BME280;43621;51.798;21.588;2023-11-21T00:30:33;99210.87;;;1.40;75.58
57791;BME280;43621;51.798;21.588;2023-11-21T00:34:34;99203.23;;;1.40;75.58
57791;BME280;43621;51.798;21.588;2023-11-21T00:38:36;99198.95;;;1.41;75.65
57791;BME280;43621;51.798;21.588;2023-11-21T00:42:38;99204.53;;;1.37;75.56
57791;BME280;43621;51.798;21.588;2023-11-21T00:46:40;99206.81;;;1.28;75.69
57791;BME280;43621;51.798;21.588;2023-11-21T00:50:41;99205.80;;;1.17;75.92
57791;BME280;43621;51.798;21.588;2023-11-21T00:54:42;99203.21;;;1.20;75.89
57791;BME280;43621;51.798;21.588;2023-11-21T00:58:43;99205.84;;;1.14;75.85
57791;BME280;43621;51.798;21.588;2023-11-21T01:02:47;99211.39;;;1.13;76.01
57791;BME280;43621;51.798;21.588;2023-11-21T01:06:49;99215.70;;;1.10;75.96
57791;BME280;43621;51.798;21.588;2023-11-21T01:10:50;99214.31;;;1.03;76.06
57791;BME280;43621;51.798;21.588;2023-11-21T01:14:50;99212.77;;;1.00;76.18
57791;BME280;43621;51.798;21.588;2023-11-21T01:18:51;99213.41;;;1.14;76.37
57791;BME280;43621;51.798;21.588;2023-11-21T01:22:53;99214.29;;;1.23;76.06
57791;BME280;43621;51.798;21.588;2023-11-21T01:26:54;99220.09;;;1.14;76.03
57791;BME280;43621;51.798;21.588;2023-11-21T01:30:55;99229.71;;;1.11;76.01
57791;BME280;43621;51.798;21.588;2023-11-21T01:34:57;99233.05;;;1.18;75.92
57791;BME280;43621;51.798;21.588;2023-11-21T01:38:58;99234.47;;;1.23;75.98
57791;BME280;43621;51.798;21.588;2023-11-21T01:43:02;99231.86;;;1.23;75.89
57791;BME280;43621;51.798;21.588;2023-11-21T01:47:05;99231.86;;;1.20;75.84
57791;BME280;43621;51.798;21.588;2023-11-21T01:51:06;99229.38;;;1.22;75.83
57791;BME280;43621;51.798;21.588;2023-11-21T01:55:08;99228.58;;;1.23;75.90
57791;BME280;43621;51.798;21.588;2023-11-21T01:59:10;99233.15;;;1.22;75.83
57791;BME280;43621;51.798;21.588;2023-11-21T02:03:12;99231.80;;;1.30;76.00
57791;BME280;43621;51.798;21.588;2023-11-21T02:07:13;99231.20;;;1.41;75.81
57791;BME280;43621;51.798;21.588;2023-11-21T02:11:14;99236.59;;;1.46;75.47
57791;BME280;43621;51.798;21.588;2023-11-21T02:15:15;99234.98;;;1.42;75.36
57791;BME280;43621;51.798;21.588;2023-11-21T02:19:19;99236.21;;;1.39;75.34
57791;BME280;43621;51.798;21.588;2023-11-21T02:23:23;99238.13;;;1.36;75.28
57791;BME280;43621;51.798;21.588;2023-11-21T02:27:29;99235.30;;;1.34;75.33
57791;BME280;43621;51.798;21.588;2023-11-21T02:31:31;99234.69;;;1.36;75.26
57791;BME280;43621;51.798;21.588;2023-11-21T02:35:33;99230.63;;;1.26;75.03
57791;BME280;43621;51.798;21.588;2023-11-21T02:39:35;99231.65;;;1.08;75.15
57791;BME280;43621;51.798;21.588;2023-11-21T02:43:36;99232.85;;;1.05;75.34
57791;BME280;43621;51.798;21.588;2023-11-21T02:47:39;99236.52;;;1.12;75.43
57791;BME280;43621;51.798;21.588;2023-11-21T02:51:40;99233.69;;;1.08;74.99
57791;BME280;43621;51.798;21.588;2023-11-21T02:55:41;99236.27;;;0.95;74.93
57791;BME280;43621;51.798;21.588;2023-11-21T02:59:42;99247.10;;;0.92;75.08
57791;BME280;43621;51.798;21.588;2023-11-21T03:03:43;99251.66;;;0.93;75.03
57791;BME280;43621;51.798;21.588;2023-11-21T03:07:44;99248.36;;;0.86;75.04
57791;BME280;43621;51.798;21.588;2023-11-21T03:11:46;99256.56;;;0.84;75.25
57791;BME280;43621;51.798;21.588;2023-11-21T03:15:46;99255.05;;;0.97;75.41
57791;BME280;43621;51.798;21.588;2023-11-21T03:19:48;99264.67;;;1.13;75.31
57791;BME280;43621;51.798;21.588;2023-11-21T03:23:49;99272.10;;;1.23;75.22
57791;BME280;43621;51.798;21.588;2023-11-21T03:27:49;99277.59;;;1.28;74.93
57791;BME280;43621;51.798;21.588;2023-11-21T03:31:50;99281.65;;;1.30;74.66
57791;BME280;43621;51.798;21.588;2023-11-21T03:35:51;99284.83;;;1.34;74.49
57791;BME280;43621;51.798;21.588;2023-11-21T03:39:57;99280.75;;;1.38;74.46
57791;BME280;43621;51.798;21.588;2023-11-21T03:43:58;99273.01;;;1.30;73.98
57791;BME280;43621;51.798;21.588;2023-11-21T03:47:59;99274.22;;;1.20;73.74
57791;BME280;43621;51.798;21.588;2023-11-21T03:52:02;99278.16;;;0.98;73.72
57791;BME280;43621;51.798;21.588;2023-11-21T03:56:03;99286.84;;;0.78;74.05
57791;BME280;43621;51.798;21.588;2023-11-21T04:00:05;99293.85;;;0.78;74.46
57791;BME280;43621;51.798;21.588;2023-11-21T04:04:09;99300.48;;;0.82;74.20
57791;BME280;43621;51.798;21.588;2023-11-21T04:08:10;99302.65;;;0.75;74.02
57791;BME280;43621;51.798;21.588;2023-11-21T04:12:11;99306.48;;;0.63;74.18
57791;BME280;43621;51.798;21.588;2023-11-21T04:16:12;99304.72;;;0.58;74.22
57791;BME280;43621;51.798;21.588;2023-11-21T04:20:13;99304.86;;;0.59;74.49
57791;BME280;43621;51.798;21.588;2023-11-21T04:24:15;99305.68;;;0.62;74.44
57791;BME280;43621;51.798;21.588;2023-11-21T04:28:16;99307.61;;;0.67;74.49
57791;BME280;43621;51.798;21.588;2023-11-21T04:32:17;99313.15;;;0.72;74.29
57791;BME280;43621;51.798;21.588;2023-11-21T04:36:18;99317.37;;;0.68;74.19
57791;BME280;43621;51.798;21.588;2023-11-21T04:40:20;99318.35;;;0.63;74.28
57791;BME280;43621;51.798;21.588;2023-11-21T04:44:21;99321.08;;;0.60;74.40
57791;BME280;43621;51.798;21.588;2023-11-21T04:48:22;99322.65;;;0.62;74.42
57791;BME280;43621;51.798;21.588;2023-11-21T04:52:23;99325.15;;;0.69;74.40
57791;BME280;43621;51.798;21.588;2023-11-21T04:56:24;99330.90;;;0.85;74.63
57791;BME280;43621;51.798;21.588;2023-11-21T05:00:25;99334.86;;;1.01;74.50
57791;BME280;43621;51.798;21.588;2023-11-21T05:04:26;99336.48;;;1.06;74.04
57791;BME280;43621;51.798;21.588;2023-11-21T05:08:27;99339.30;;;0.96;73.88
57791;BME280;43621;51.798;21.588;2023-11-21T05:12:31;99333.44;;;0.93;73.73
57791;BME280;43621;51.798;21.588;2023-11-21T05:16:36;99336.45;;;0.95;73.85
57791;BME280;43621;51.798;21.588;2023-11-21T05:20:38;99337.95;;;0.93;73.69
57791;BME280;43621;51.798;21.588;2023-11-21T05:24:41;99340.28;;;0.88;73.62
57791;BME280;43621;51.798;21.588;2023-11-21T05:28:42;99343.05;;;0.91;73.72
57791;BME280;43621;51.798;21.588;2023-11-21T05:32:43;99351.11;;;0.85;73.63
57791;BME280;43621;51.798;21.588;2023-11-21T05:36:44;99358.47;;;0.81;73.64
57791;BME280;43621;51.798;21.588;2023-11-21T05:40:47;99364.14;;;0.83;73.80
57791;BME280;43621;51.798;21.588;2023-11-21T05:44:48;99372.71;;;0.86;73.67
57791;BME280;43621;51.798;21.588;2023-11-21T05:48:49;99380.80;;;0.86;73.64
57791;BME280;43621;51.798;21.588;2023-11-21T05:52:50;99385.02;;;0.87;73.69
57791;BME280;43621;51.798;21.588;2023-11-21T05:56:51;99396.46;;;0.80;73.60
57791;BME280;43621;51.798;21.588;2023-11-21T06:00:52;99397.77;;;0.84;73.63
57791;BME280;43621;51.798;21.588;2023-11-21T06:04:54;99400.43;;;0.88;73.58
57791;BME280;43621;51.798;21.588;2023-11-21T06:08:54;99409.62;;;0.79;73.51
57791;BME280;43621;51.798;21.588;2023-11-21T06:12:56;99410.97;;;0.71;73.51
57791;BME280;43621;51.798;21.588;2023-11-21T06:16:58;99417.05;;;0.69;73.54
57791;BME280;43621;51.798;21.588;2023-11-21T06:20:59;99423.50;;;0.74;73.74
57791;BME280;43621;51.798;21.588;2023-11-21T06:25:01;99426.14;;;0.75;73.71
57791;BME280;43621;51.798;21.588;2023-11-21T06:29:03;99426.25;;;0.79;73.61
57791;BME280;43621;51.798;21.588;2023-11-21T06:33:04;99429.69;;;0.77;73.41
57791;BME280;43621;51.798;21.588;2023-11-21T06:37:05;99422.73;;;0.75;73.50
57791;BME280;43621;51.798;21.588;2023-11-21T06:41:06;99419.05;;;0.65;73.55
57791;BME280;43621;51.798;21.588;2023-11-21T06:45:08;99421.77;;;0.57;74.36
57791;BME280;43621;51.798;21.588;2023-11-21T06:49:11;99426.80;;;0.70;74.35
57791;BME280;43621;51.798;21.588;2023-11-21T06:53:12;99434.23;;;0.83;74.17
57791;BME280;43621;51.798;21.588;2023-11-21T06:57:14;99444.65;;;0.93;74.14
57791;BME280;43621;51.798;21.588;2023-11-21T07:01:15;99448.15;;;1.01;74.01
57791;BME280;43621;51.798;21.588;2023-11-21T07:05:16;99449.09;;;1.08;73.91
57791;BME280;43621;51.798;21.588;2023-11-21T07:09:21;99451.75;;;1.15;73.78
57791;BME280;43621;51.798;21.588;2023-11-21T07:13:22;99454.92;;;1.13;73.49
57791;BME280;43621;51.798;21.588;2023-11-21T07:17:23;99459.78;;;1.07;73.50
57791;BME280;43621;51.798;21.588;2023-11-21T07:21:24;99466.30;;;1.02;73.49
57791;BME280;43621;51.798;21.588;2023-11-21T07:25:25;99472.16;;;0.93;73.62
57791;BME280;43621;51.798;21.588;2023-11-21T07:29:26;99473.63;;;0.97;73.86
57791;BME280;43621;51.798;21.588;2023-11-21T07:33:27;99474.34;;;0.94;73.54
57791;BME280;43621;51.798;21.588;2023-11-21T07:37:28;99481.45;;;0.95;73.57
57791;BME280;43621;51.798;21.588;2023-11-21T07:41:29;99485.32;;;1.03;73.58
57791;BME280;43621;51.798;21.588;2023-11-21T07:45:30;99494.42;;;1.03;73.73
57791;BME280;43621;51.798;21.588;2023-11-21T07:49:31;99496.42;;;1.07;73.88
57791;BME280;43621;51.798;21.588;2023-11-21T07:53:32;99499.17;;;1.21;74.06
57791;BME280;43621;51.798;21.588;2023-11-21T07:57:33;99499.70;;;1.35;73.82
57791;BME280;43621;51.798;21.588;2023-11-21T08:01:34;99497.89;;;1.45;73.62
57791;BME280;43621;51.798;21.588;2023-11-21T08:05:34;99496.86;;;1.50;73.44
57791;BME280;43621;51.798;21.588;2023-11-21T08:09:35;99497.75;;;1.42;73.03
57791;BME280;43621;51.798;21.588;2023-11-21T08:13:36;99500.80;;;1.25;72.80
57791;BME280;43621;51.798;21.588;2023-11-21T08:17:37;99504.60;;;1.11;73.02
57791;BME280;43621;51.798;21.588;2023-11-21T08:21:39;99505.20;;;0.92;72.98
57791;BME280;43621;51.798;21.588;2023-11-21T08:25:42;99514.32;;;0.86;73.32
57791;BME280;43621;51.798;21.588;2023-11-21T08:29:43;99515.95;;;0.82;73.64
57791;BME280;43621;51.798;21.588;2023-11-21T08:33:44;99518.95;;;0.72;73.85
57791;BME280;43621;51.798;21.588;2023-11-21T08:37:45;99522.91;;;0.83;74.05
57791;BME280;43621;51.798;21.588;2023-11-21T08:41:46;99522.44;;;0.91;73.86
57791;BME280;43621;51.798;21.588;2023-11-21T08:45:47;99518.83;;;0.94;73.98
57791;BME280;43621;51.798;21.588;2023-11-21T08:49:48;99518.36;;;0.96;73.76
57791;BME280;43621;51.798;21.588;2023-11-21T08:53:49;99515.63;;;0.96;73.85
57791;BME280;43621;51.798;21.588;2023-11-21T08:57:49;99520.73;;;1.03;73.74
57791;BME280;43621;51.798;21.588;2023-11-21T09:01:51;99524.48;;;1.01;73.59
57791;BME280;43621;51.798;21.588;2023-11-21T09:05:53;99528.55;;;0.92;73.60
57791;BME280;43621;51.798;21.588;2023-11-21T09:09:54;99529.47;;;0.77;73.97
57791;BME280;43621;51.798;21.588;2023-11-21T09:13:55;99534.70;;;0.70;74.22
57791;BME280;43621;51.798;21.588;2023-11-21T09:17:58;99537.49;;;0.69;74.49
57791;BME280;43621;51.798;21.588;2023-11-21T09:21:59;99540.09;;;0.74;74.57
57791;BME280;43621;51.798;21.588;2023-11-21T09:26:00;99544.37;;;0.80;74.51
57791;BME280;43621;51.798;21.588;2023-11-21T09:30:02;99548.17;;;0.89;74.25
57791;BME280;43621;51.798;21.588;2023-11-21T09:34:05;99552.55;;;0.90;74.18
57791;BME280;43621;51.798;21.588;2023-11-21T09:38:07;99553.94;;;0.99;74.41
57791;BME280;43621;51.798;21.588;2023-11-21T09:42:30;99553.19;;;1.09;74.14
57791;BME280;43621;51.798;21.588;2023-11-21T09:46:34;99549.33;;;1.19;74.06
57791;BME280;43621;51.798;21.588;2023-11-21T09:50:36;99547.98;;;1.24;73.84
57791;BME280;43621;51.798;21.588;2023-11-21T09:54:38;99550.64;;;1.25;73.89
57791;BME280;43621;51.798;21.588;2023-11-21T09:58:40;99552.89;;;1.28;73.67
57791;BME280;43621;51.798;21.588;2023-11-21T10:02:41;99555.52;;;1.34;73.63
57791;BME280;43621;51.798;21.588;2023-11-21T10:06:43;99556.54;;;1.45;73.65
57791;BME280;43621;51.798;21.588;2023-11-21T10:10:49;99562.35;;;1.54;73.61
57791;BME280;43621;51.798;21.588;2023-11-21T10:14:54;99563.66;;;1.64;73.77
57791;BME280;43621;51.798;21.588;2023-11-21T10:18:57;99570.60;;;1.74;73.47
57791;BME280;43621;51.798;21.588;2023-11-21T10:23:00;99568.65;;;1.75;73.02
57791;BME280;43621;51.798;21.588;2023-11-21T10:27:04;99570.13;;;1.76;73.13
57791;BME280;43621;51.798;21.588;2023-11-21T10:31:07;99569.83;;;1.81;73.14
57791;BME280;43621;51.798;21.588;2023-11-21T10:35:08;99570.96;;;1.84;72.92
57791;BME280;43621;51.798;21.588;2023-11-21T10:39:19;99570.14;;;1.81;72.51
57791;BME280;43621;51.798;21.588;2023-11-21T10:43:24;99573.81;;;1.77;72.78
57791;BME280;43621;51.798;21.588;2023-11-21T10:47:26;99575.98;;;1.81;72.98
57791;BME280;43621;51.798;21.588;2023-11-21T10:51:27;99576.77;;;1.85;72.67
57791;BME280;43621;51.798;21.588;2023-11-21T10:55:29;99577.15;;;1.87;72.57
57791;BME280;43621;51.798;21.588;2023-11-21T10:59:32;99578.27;;;1.86;72.44
57791;BME280;43621;51.798;21.588;2023-11-21T11:03:36;99580.57;;;1.79;72.36
57791;BME280;43621;51.798;21.588;2023-11-21T11:07:40;99577.52;;;1.81;72.46
57791;BME280;43621;51.798;21.588;2023-11-21T11:11:43;99579.24;;;1.90;72.54
57791;BME280;43621;51.798;21.588;2023-11-21T11:15:47;99578.92;;;1.95;72.31
57791;BME280;43621;51.798;21.588;2023-11-21T11:19:48;99580.34;;;1.97;72.21
57791;BME280;43621;51.798;21.588;2023-11-21T11:28:18;99577.02;;;1.98;72.06
57791;BME280;43621;51.798;21.588;2023-11-21T11:37:01;99575.05;;;1.99;71.76
57791;BME280;43621;51.798;21.588;2023-11-21T11:41:06;99582.73;;;1.95;71.84
57791;BME280;43621;51.798;21.588;2023-11-21T11:45:18;99586.30;;;2.01;71.88
57791;BME280;43621;51.798;21.588;2023-11-21T11:49:27;99591.03;;;2.07;71.60
57791;BME280;43621;51.798;21.588;2023-11-21T11:53:35;99593.95;;;2.10;71.68
57791;BME280;43621;51.798;21.588;2023-11-21T11:57:38;99594.11;;;2.13;71.55
57791;BME280;43621;51.798;21.588;2023-11-21T12:01:46;99600.22;;;2.06;71.36
57791;BME280;43621;51.798;21.588;2023-11-21T12:05:47;99604.02;;;1.95;71.35
57791;BME280;43621;51.798;21.588;2023-11-21T12:09:50;99606.85;;;1.91;71.56
57791;BME280;43621;51.798;21.588;2023-11-21T12:13:51;99611.05;;;1.96;71.67
57791;BME280;43621;51.798;21.588;2023-11-21T12:17:53;99614.38;;;2.00;71.46
57791;BME280;43621;51.798;21.588;2023-11-21T12:21:55;99612.92;;;1.96;71.30
57791;BME280;43621;51.798;21.588;2023-11-21T12:25:56;99613.38;;;1.89;71.14
57791;BME280;43621;51.798;21.588;2023-11-21T12:29:58;99615.55;;;1.79;71.28
57791;BME280;43621;51.798;21.588;2023-11-21T12:34:00;99618.80;;;1.76;71.32
57791;BME280;43621;51.798;21.588;2023-11-21T12:38:05;99622.67;;;1.78;71.29
57791;BME280;43621;51.798;21.588;2023-11-21T12:42:06;99626.98;;;1.75;71.13
57791;BME280;43621;51.798;21.588;2023-11-21T12:46:09;99633.84;;;1.70;71.23
57791;BME280;43621;51.798;21.588;2023-11-21T12:50:10;99638.51;;;1.69;71.36
57791;BME280;43621;51.798;21.588;2023-11-21T12:54:15;99639.45;;;1.65;70.96
57791;BME280;43621;51.798;21.588;2023-11-21T12:58:16;99639.33;;;1.61;70.92
57791;BME280;43621;51.798;21.588;2023-11-21T13:02:17;99639.20;;;1.60;71.04
57791;BME280;43621;51.798;21.588;2023-11-21T13:06:18;99640.36;;;1.58;71.05
57791;BME280;43621;51.798;21.588;2023-11-21T13:10:24;99642.13;;;1.60;71.20
57791;BME280;43621;51.798;21.588;2023-11-21T13:14:31;99651.94;;;1.69;71.23
57791;BME280;43621;51.798;21.588;2023-11-21T13:18:33;99658.22;;;1.70;71.12
57791;BME280;43621;51.798;21.588;2023-11-21T13:22:34;99661.02;;;1.64;70.98
57791;BME280;43621;51.798;21.588;2023-11-21T13:26:36;99670.07;;;1.56;70.78
57791;BME280;43621;51.798;21.588;2023-11-21T13:30:38;99677.80;;;1.48;70.83
57791;BME280;43621;51.798;21.588;2023-11-21T13:34:40;99682.23;;;1.45;70.98
57791;BME280;43621;51.798;21.588;2023-11-21T13:38:45;99685.45;;;1.41;70.90
57791;BME280;43621;51.798;21.588;2023-11-21T13:42:46;99689.08;;;1.37;70.86
57791;BME280;43621;51.798;21.588;2023-11-21T13:46:47;99693.95;;;1.36;70.66
57791;BME280;43621;51.798;21.588;2023-11-21T13:50:48;99697.48;;;1.35;70.90
57791;BME280;43621;51.798;21.588;2023-11-21T13:54:55;99692.04;;;1.34;71.01
57791;BME280;43621;51.798;21.588;2023-11-21T13:58:57;99693.32;;;1.29;70.99
57791;BME280;43621;51.798;21.588;2023-11-21T14:03:04;99700.66;;;1.33;71.10
57791;BME280;43621;51.798;21.588;2023-11-21T14:07:09;99699.34;;;1.35;70.95
57791;BME280;43621;51.798;21.588;2023-11-21T14:11:29;99706.49;;;1.34;70.98
57791;BME280;43621;51.798;21.588;2023-11-21T14:15:31;99717.93;;;1.26;70.81
57791;BME280;43621;51.798;21.588;2023-11-21T14:19:33;99719.91;;;1.18;70.79
57791;BME280;43621;51.798;21.588;2023-11-21T14:23:37;99726.48;;;1.14;70.85
57791;BME280;43621;51.798;21.588;2023-11-21T14:27:39;99735.30;;;1.13;71.03
57791;BME280;43621;51.798;21.588;2023-11-21T14:31:40;99741.98;;;1.14;71.08
57791;BME280;43621;51.798;21.588;2023-11-21T14:35:42;99754.35;;;1.17;70.90
57791;BME280;43621;51.798;21.588;2023-11-21T14:39:43;99764.19;;;1.13;70.90
57791;BME280;43621;51.798;21.588;2023-11-21T14:43:50;99771.66;;;1.12;70.94
57791;BME280;43621;51.798;21.588;2023-11-21T14:47:51;99777.36;;;1.12;71.01
57791;BME280;43621;51.798;21.588;2023-11-21T14:52:07;99788.45;;;1.19;71.02
57791;BME280;43621;51.798;21.588;2023-11-21T14:56:23;99796.32;;;1.29;71.08
57791;BME280;43621;51.798;21.588;2023-11-21T15:00:35;99803.52;;;1.36;71.00
57791;BME280;43621;51.798;21.588;2023-11-21T15:04:36;99800.27;;;1.36;70.84
57791;BME280;43621;51.798;21.588;2023-11-21T15:08:38;99801.19;;;1.31;70.94
57791;BME280;43621;51.798;21.588;2023-11-21T15:12:39;99804.27;;;1.32;71.18
57791;BME280;43621;51.798;21.588;2023-11-21T15:16:40;99810.14;;;1.34;70.92
57791;BME280;43621;51.798;21.588;2023-11-21T15:20:44;99815.61;;;1.32;70.69
57791;BME280;43621;51.798;21.588;2023-11-21T15:24:45;99820.52;;;1.30;70.77
57791;BME280;43621;51.798;21.588;2023-11-21T15:28:48;99831.38;;;1.26;70.66
57791;BME280;43621;51.798;21.588;2023-11-21T15:32:48;99837.52;;;1.21;70.53
57791;BME280;43621;51.798;21.588;2023-11-21T15:36:49;99841.18;;;1.20;70.65
57791;BME280;43621;51.798;21.588;2023-11-21T15:40:53;99836.30;;;1.15;70.52
57791;BME280;43621;51.798;21.588;2023-11-21T15:44:55;99842.29;;;1.06;70.51
57791;BME280;43621;51.798;21.588;2023-11-21T15:48:56;99844.30;;;1.01;70.66
57791;BME280;43621;51.798;21.588;2023-11-21T15:52:57;99852.23;;;1.01;70.73
57791;BME280;43621;51.798;21.588;2023-11-21T15:56:58;99864.71;;;1.02;70.75
57791;BME280;43621;51.798;21.588;2023-11-21T16:01:00;99860.61;;;1.02;70.86
57791;BME280;43621;51.798;21.588;2023-11-21T16:05:01;99861.29;;;0.95;70.60
57791;BME280;43621;51.798;21.588;2023-11-21T16:09:05;99862.70;;;0.88;70.69
57791;BME280;43621;51.798;21.588;2023-11-21T16:13:13;99864.90;;;0.85;70.84
57791;BME280;43621;51.798;21.588;2023-11-21T16:17:14;99869.04;;;0.85;71.01
57791;BME280;43621;51.798;21.588;2023-11-21T16:21:15;99876.66;;;0.87;71.09
57791;BME280;43621;51.798;21.588;2023-11-21T16:25:16;99884.92;;;0.87;71.02
57791;BME280;43621;51.798;21.588;2023-11-21T16:29:17;99889.02;;;0.84;71.00
57791;BME280;43621;51.798;21.588;2023-11-21T16:33:17;99896.85;;;0.86;70.93
57791;BME280;43621;51.798;21.588;2023-11-21T16:37:20;99902.63;;;0.90;71.16
57791;BME280;43621;51.798;21.588;2023-11-21T16:41:21;99905.06;;;0.89;71.10
57791;BME280;43621;51.798;21.588;2023-11-21T16:45:21;99910.75;;;0.86;71.14
57791;BME280;43621;51.798;21.588;2023-11-21T16:49:23;99914.96;;;0.84;70.92
57791;BME280;43621;51.798;21.588;2023-11-21T16:53:25;99925.10;;;0.78;70.76
57791;BME280;43621;51.798;21.588;2023-11-21T16:57:25;99931.20;;;0.73;70.70
57791;BME280;43621;51.798;21.588;2023-11-21T17:01:26;99934.05;;;0.67;70.86
57791;BME280;43621;51.798;21.588;2023-11-21T17:05:29;99938.44;;;0.66;70.95
57791;BME280;43621;51.798;21.588;2023-11-21T17:09:30;99943.60;;;0.69;70.95
57791;BME280;43621;51.798;21.588;2023-11-21T17:13:31;99945.45;;;0.70;71.02
57791;BME280;43621;51.798;21.588;2023-11-21T17:17:32;99952.55;;;0.69;70.88
57791;BME280;43621;51.798;21.588;2023-11-21T17:21:34;99956.38;;;0.64;70.83
57791;BME280;43621;51.798;21.588;2023-11-21T17:25:36;99965.84;;;0.61;70.71
57791;BME280;43621;51.798;21.588;2023-11-21T17:29:37;99971.90;;;0.63;70.83
57791;BME280;43621;51.798;21.588;2023-11-21T17:33:39;99978.41;;;0.63;70.85
57791;BME280;43621;51.798;21.588;2023-11-21T17:37:40;99986.19;;;0.62;70.85
57791;BME280;43621;51.798;21.588;2023-11-21T17:41:41;99984.23;;;0.60;70.65
57791;BME280;43621;51.798;21.588;2023-11-21T17:45:42;99987.28;;;0.58;70.59
57791;BME280;43621;51.798;21.588;2023-11-21T17:49:43;99996.77;;;0.54;70.41
57791;BME280;43621;51.798;21.588;2023-11-21T17:53:44;100003.39;;;0.48;70.45
57791;BME280;43621;51.798;21.588;2023-11-21T17:57:45;100004.67;;;0.47;70.51
57791;BME280;43621;51.798;21.588;2023-11-21T18:01:46;100006.73;;;0.47;70.56
57791;BME280;43621;51.798;21.588;2023-11-21T18:05:47;100012.30;;;0.49;70.52
57791;BME280;43621;51.798;21.588;2023-11-21T18:09:48;100013.08;;;0.40;70.24
57791;BME280;43621;51.798;21.588;2023-11-21T18:13:50;100016.77;;;0.35;70.41
57791;BME280;43621;51.798;21.588;2023-11-21T18:17:51;100023.45;;;0.35;70.45
57791;BME280;43621;51.798;21.588;2023-11-21T18:21:52;100027.93;;;0.35;70.58
57791;BME280;43621;51.798;21.588;2023-11-21T18:25:53;100031.35;;;0.39;70.47
57791;BME280;43621;51.798;21.588;2023-11-21T18:29:55;100033.44;;;0.42;70.39
57791;BME280;43621;51.798;21.588;2023-11-21T18:33:56;100033.13;;;0.41;70.30
57791;BME280;43621;51.798;21.588;2023-11-21T18:37:57;100040.17;;;0.37;70.07
57791;BME280;43621;51.798;21.588;2023-11-21T18:41:58;100037.08;;;0.34;69.99
57791;BME280;43621;51.798;21.588;2023-11-21T18:46:03;100044.27;;;0.27;69.79
57791;BME280;43621;51.798;21.588;2023-11-21T18:50:05;100051.66;;;0.23;69.78
57791;BME280;43621;51.798;21.588;2023-11-21T18:54:06;100052.25;;;0.21;69.86
57791;BME280;43621;51.798;21.588;2023-11-21T18:58:07;100052.13;;;0.24;69.93
57791;BME280;43621;51.798;21.588;2023-11-21T19:02:08;100052.67;;;0.23;69.72
57791;BME280;43621;51.798;21.588;2023-11-21T19:06:14;100059.41;;;0.19;69.60
57791;BME280;43621;51.798;21.588;2023-11-21T19:10:15;100069.79;;;0.21;69.95
57791;BME280;43621;51.798;21.588;2023-11-21T19:14:19;100075.19;;;0.30;70.02
57791;BME280;43621;51.798;21.588;2023-11-21T19:18:20;100084.41;;;0.39;70.00
57791;BME280;43621;51.798;21.588;2023-11-21T19:22:21;100088.74;;;0.41;69.91
57791;BME280;43621;51.798;21.588;2023-11-21T19:26:22;100088.65;;;0.36;69.59
57791;BME280;43621;51.798;21.588;2023-11-21T19:30:23;100096.77;;;0.35;69.75
57791;BME280;43621;51.798;21.588;2023-11-21T19:34:24;100101.50;;;0.40;69.83
57791;BME280;43621;51.798;21.588;2023-11-21T19:38:25;100102.33;;;0.44;69.89
57791;BME280;43621;51.798;21.588;2023-11-21T19:42:26;100102.01;;;0.44;69.69
57791;BME280;43621;51.798;21.588;2023-11-21T19:46:27;100105.82;;;0.40;69.54
57791;BME280;43621;51.798;21.588;2023-11-21T19:50:28;100111.19;;;0.43;69.63
57791;BME280;43621;51.798;21.588;2023-11-21T19:54:29;100116.41;;;0.48;69.68
57791;BME280;43621;51.798;21.588;2023-11-21T19:58:30;100118.73;;;0.53;69.62
57791;BME280;43621;51.798;21.588;2023-11-21T20:02:31;100127.85;;;0.53;69.54
57791;BME280;43621;51.798;21.588;2023-11-21T20:06:38;100133.69;;;0.46;69.04
57791;BME280;43621;51.798;21.588;2023-11-21T20:10:42;100132.02;;;0.27;69.00
57791;BME280;43621;51.798;21.588;2023-11-21T20:14:44;100134.13;;;0.22;69.19
57791;BME280;43621;51.798;21.588;2023-11-21T20:18:47;100142.73;;;0.25;69.29
57791;BME280;43621;51.798;21.588;2023-11-21T20:22:48;100147.51;;;0.29;69.53
57791;BME280;43621;51.798;21.588;2023-11-21T20:26:48;100154.95;;;0.36;69.53
57791;BME280;43621;51.798;21.588;2023-11-21T20:30:50;100153.70;;;0.37;69.29
57791;BME280;43621;51.798;21.588;2023-11-21T20:34:51;100158.16;;;0.37;69.30
57791;BME280;43621;51.798;21.588;2023-11-21T20:38:53;100169.45;;;0.42;69.20
57791;BME280;43621;51.798;21.588;2023-11-21T20:42:54;100182.05;;;0.37;69.09
57791;BME280;43621;51.798;21.588;2023-11-21T20:47:03;100189.59;;;0.29;69.03
57791;BME280;43621;51.798;21.588;2023-11-21T20:51:04;100193.57;;;0.28;68.97
57791;BME280;43621;51.798;21.588;2023-11-21T20:55:05;100200.59;;;0.32;69.06
57791;BME280;43621;51.798;21.588;2023-11-21T20:59:07;100203.70;;;0.36;69.15
57791;BME280;43621;51.798;21.588;2023-11-21T21:03:08;100202.57;;;0.38;69.07
57791;BME280;43621;51.798;21.588;2023-11-21T21:07:10;100204.86;;;0.37;68.92
57791;BME280;43621;51.798;21.588;2023-11-21T21:11:17;100210.05;;;0.36;68.88
57791;BME280;43621;51.798;21.588;2023-11-21T21:15:20;100215.66;;;0.38;68.89
57791;BME280;43621;51.798;21.588;2023-11-21T21:19:21;100222.23;;;0.41;68.87
57791;BME280;43621;51.798;21.588;2023-11-21T21:23:22;100226.88;;;0.47;68.81
57791;BME280;43621;51.798;21.588;2023-11-21T21:27:23;100228.03;;;0.52;68.80